Time;durP1;ratioP1;P1;durP2;ratioP2;P2;SDS_P1;SDS_P2;PMS_P1;PMS_P2;Temp;Humidity;BMP_temperature;BMP_pressure;BME280_temperature;BME280_humidity;BME280_pressure;Samples;Min_cycle;Max_cycle;Signal;HPM_P1;HPM_P2
2020/12/23 18:22:40;;;;;;;;;;;;;;;14.59;69.39;99058.00;5135212;23;19948;-81
2020/12/23 18:25:06;;;;;;;;;;;;;;;14.60;69.32;99050.88;4974903;28;20397;-78
2020/12/23 18:27:32;;;;;;;;;;;;;;;14.59;69.13;99039.34;4976332;28;19914;-80
2020/12/23 18:29:57;;;;;;;;;;;;;;;14.60;69.25;99040.22;4976780;28;19922;-79
2020/12/23 18:32:22;;;;;;;;;;;;;;;14.59;69.32;99035.84;4975913;28;19925;-81
2020/12/23 18:34:48;;;;;;;;;;;;;;;14.58;69.21;99040.28;4975194;28;19926;-80
2020/12/23 18:37:13;;;;;;;;;;;;;;;14.60;69.29;99033.09;4975328;28;19914;-81
2020/12/23 18:39:38;;;;;;;;;;;;;;;14.64;68.94;99026.56;4975741;28;19922;-80
2020/12/23 18:42:04;;;;;;;;;;;;;;;14.64;68.86;99031.88;4974983;28;20339;-81
2020/12/23 18:44:29;;;;;;;;;;;;;;;14.64;68.94;99034.56;4974501;28;19933;-81
2020/12/23 18:46:54;;;;;;;;;;;;;;;14.62;68.70;99028.50;4975861;28;19988;-81
2020/12/23 18:49:20;;;;;;;;;;;;;;;14.60;68.77;99030.44;4975425;28;20164;-80
2020/12/23 18:51:45;;;;;;;;;;;;;;;14.60;68.70;99035.75;4974965;28;19922;-80
2020/12/23 18:54:10;;;;;;;;;;;;;;;14.61;68.69;99029.44;4974807;28;19929;-81
2020/12/23 18:56:35;;;;;;;;;;;;;;;14.63;68.73;99026.66;4975634;28;19932;-80
2020/12/23 18:59:01;;;;;;;;;;;;;;;14.64;68.68;99026.56;4975148;28;19914;-80
2020/12/23 19:01:27;;;;;;;;;;;;;;;14.66;68.59;99030.00;4975718;28;19937;-80
2020/12/23 19:03:52;;;;;;;;;;;;;;;14.65;68.48;99025.59;4957259;28;19915;-79
2020/12/23 19:06:26;;;;;;;;;;;;;;;14.65;68.50;99022.09;4975385;28;19965;-80
2020/12/23 19:08:52;;;;;;;;;;;;;;;14.60;68.74;99025.09;4974830;28;19988;-79
2020/12/23 19:11:18;;;;;;;;;;;;;;;14.59;68.53;99028.69;4973959;28;20280;-81
2020/12/23 19:13:45;;;;;;;;;;;;;;;14.57;68.49;99019.06;4972754;28;20033;-80
2020/12/23 19:16:11;;;;;;;;;;;;;;;14.57;68.53;99035.06;4974909;28;19949;-80
2020/12/23 19:18:36;;;;;;;;;;;;;;;14.59;68.31;99039.34;4975761;28;20218;-79
2020/12/23 19:21:04;;;;;;;;;;;;;;;14.58;68.45;99042.97;4975144;28;19920;-80
2020/12/23 19:23:29;;;;;;;;;;;;;;;14.58;68.39;99040.28;4975193;28;19922;-80
2020/12/23 19:25:54;;;;;;;;;;;;;;;14.60;68.44;99041.09;4975865;28;20040;-80
2020/12/23 19:28:20;;;;;;;;;;;;;;;14.59;68.51;99041.16;4976237;28;19922;-79
2020/12/23 19:30:45;;;;;;;;;;;;;;;14.60;68.50;99040.22;4977716;28;20033;-80
2020/12/23 19:33:13;;;;;;;;;;;;;;;14.61;68.34;99042.78;4977739;28;19918;-78
2020/12/23 19:35:38;;;;;;;;;;;;;;;14.61;68.20;99042.78;4979223;28;19965;-81
2020/12/23 19:38:08;;;;;;;;;;;;;;;14.64;67.94;99034.56;4979363;28;19949;-77
2020/12/23 19:40:33;;;;;;;;;;;;;;;14.72;67.84;99039.34;4978939;28;19969;-81
2020/12/23 19:43:03;;;;;;;;;;;;;;;14.70;67.61;99026.13;4979576;28;19953;-81
2020/12/23 19:45:29;;;;;;;;;;;;;;;14.70;67.67;99018.13;4977224;28;19925;-79
2020/12/23 19:47:55;;;;;;;;;;;;;;;14.65;67.71;99033.59;4979404;28;20353;-80
2020/12/23 19:50:21;;;;;;;;;;;;;;;14.62;67.82;99044.50;4979377;28;19928;-82
2020/12/23 19:52:46;;;;;;;;;;;;;;;14.62;67.96;99030.31;4979011;28;19926;-83
2020/12/23 19:55:11;;;;;;;;;;;;;;;14.73;67.27;99035.72;4961408;28;19985;-82
2020/12/23 19:57:37;;;;;;;;;;;;;;;14.76;67.40;99031.97;4979155;28;19953;-82
2020/12/23 20:00:03;;;;;;;;;;;;;;;14.71;67.30;99033.16;4962902;28;20333;-79
2020/12/23 20:02:28;;;;;;;;;;;;;;;14.71;67.31;99029.66;4962387;28;19921;-79
2020/12/23 20:04:54;;;;;;;;;;;;;;;14.74;67.32;99020.56;4978104;28;19919;-80
2020/12/23 20:07:19;;;;;;;;;;;;;;;14.74;67.03;99017.91;4979316;28;19918;-83
2020/12/23 20:09:44;;;;;;;;;;;;;;;14.75;67.00;99030.28;4978268;28;20286;-80
2020/12/23 20:12:10;;;;;;;;;;;;;;;14.75;66.98;99027.63;4978352;28;19940;-80
2020/12/23 20:14:35;;;;;;;;;;;;;;;14.75;66.91;99024.94;4978068;28;19930;-81
2020/12/23 20:17:01;;;;;;;;;;;;;;;14.71;66.94;99035.84;4978168;28;19918;-83
2020/12/23 20:19:27;;;;;;;;;;;;;;;14.75;66.80;99032.94;4978567;28;19930;-83
2020/12/23 20:21:53;;;;;;;;;;;;;;;14.74;66.88;99031.25;4961616;28;20020;-83
2020/12/23 20:24:18;;;;;;;;;;;;;;;14.76;66.87;99026.63;4976207;28;20442;-82
2020/12/23 20:26:44;;;;;;;;;;;;;;;14.84;66.67;99029.63;4978683;28;20359;-82
2020/12/23 20:29:10;;;;;;;;;;;;;;;14.90;66.43;99026.50;4961708;28;20293;-83
2020/12/23 20:31:36;;;;;;;;;;;;;;;14.92;66.10;99029.91;4974994;28;19928;-82
2020/12/23 20:34:01;;;;;;;;;;;;;;;14.84;66.43;99026.97;4977700;28;20017;-81
2020/12/23 20:36:26;;;;;;;;;;;;;;;14.80;66.53;99020.97;4978039;28;19929;-82
2020/12/23 20:38:52;;;;;;;;;;;;;;;14.75;66.55;99023.13;4976375;28;19985;-82
2020/12/23 20:41:20;;;;;;;;;;;;;;;14.74;66.49;99021.41;4978535;28;20021;-82
2020/12/23 20:43:47;;;;;;;;;;;;;;;14.80;66.16;99017.47;4978555;28;20008;-82
2020/12/23 20:46:13;;;;;;;;;;;;;;;14.76;66.11;99019.50;4977049;28;19980;-83
2020/12/23 20:48:38;;;;;;;;;;;;;;;14.70;66.18;99018.13;4978619;28;19922;-83
2020/12/23 20:51:03;;;;;;;;;;;;;;;14.70;66.23;99010.13;4961183;28;20017;-82
2020/12/23 20:53:29;;;;;;;;;;;;;;;14.73;65.96;99008.19;4979106;28;19926;-82
2020/12/23 20:55:55;;;;;;;;;;;;;;;14.70;65.86;98993.28;4978763;28;19917;-81
2020/12/23 20:58:20;;;;;;;;;;;;;;;14.66;65.83;99002.47;4977604;28;19962;-82
2020/12/23 21:00:46;;;;;;;;;;;;;;;14.66;65.80;99006.00;4978019;28;19976;-82
2020/12/23 21:03:11;;;;;;;;;;;;;;;14.66;65.54;99006.00;4961557;28;19929;-82
2020/12/23 21:05:36;;;;;;;;;;;;;;;14.65;65.42;98996.28;4977065;28;20054;-82
2020/12/23 21:08:02;;;;;;;;;;;;;;;14.61;65.10;98999.28;4978537;28;20008;-82
2020/12/23 21:10:27;;;;;;;;;;;;;;;14.62;64.81;98988.50;4960940;28;19922;-82
2020/12/23 21:12:52;;;;;;;;;;;;;;;14.59;64.79;98996.69;4978843;28;19934;-81
2020/12/23 21:15:17;;;;;;;;;;;;;;;14.64;64.64;98999.06;4979026;28;19922;-81
2020/12/23 21:17:43;;;;;;;;;;;;;;;14.58;64.76;98997.63;4978995;28;19933;-81
2020/12/23 21:20:08;;;;;;;;;;;;;;;14.58;64.54;99002.13;4978493;28;19918;-81
2020/12/23 21:22:33;;;;;;;;;;;;;;;14.61;64.82;99009.94;4963889;28;20033;-82
2020/12/23 21:24:59;;;;;;;;;;;;;;;14.58;64.56;99002.97;4981766;28;19926;-82
2020/12/23 21:27:24;;;;;;;;;;;;;;;14.58;64.94;99005.63;4980623;28;19949;-83
2020/12/23 21:29:49;;;;;;;;;;;;;;;14.55;64.96;99011.22;4977803;28;19948;-82
2020/12/23 21:32:15;;;;;;;;;;;;;;;14.58;64.77;99023.47;4962860;28;19929;-81
2020/12/23 21:34:40;;;;;;;;;;;;;;;14.62;64.84;99012.50;4965145;28;19938;-81
2020/12/23 21:37:06;;;;;;;;;;;;;;;14.69;64.81;99019.09;4981381;28;19918;-82
2020/12/23 21:39:31;;;;;;;;;;;;;;;14.75;64.40;99031.13;4981475;28;20320;-83
2020/12/23 21:41:57;;;;;;;;;;;;;;;14.83;64.22;99027.91;4983595;28;20189;-80
2020/12/23 21:44:23;;;;;;;;;;;;;;;14.79;64.37;99029.09;4981950;28;19952;-82
2020/12/23 21:46:53;;;;;;;;;;;;;;;14.74;64.73;99032.09;4983365;28;20008;-82
2020/12/23 21:49:18;;;;;;;;;;;;;;;14.79;64.51;99034.41;4963547;28;19929;-82
2020/12/23 21:51:45;;;;;;;;;;;;;;;14.78;64.91;99028.25;4961604;28;20070;-82
2020/12/23 21:54:11;;;;;;;;;;;;;;;14.87;64.71;99021.38;4980296;28;20248;-81
2020/12/23 21:56:36;;;;;;;;;;;;;;;14.80;64.90;99023.63;4979308;28;19922;-81
2020/12/23 21:59:02;;;;;;;;;;;;;;;14.74;64.97;99021.41;4977590;28;19972;-83
2020/12/23 22:01:28;;;;;;;;;;;;;;;14.85;64.00;99033.97;4977155;28;19934;-79
2020/12/23 22:03:53;;;;;;;;;;;;;;;14.82;64.38;99028.88;4977910;28;19969;-83
2020/12/23 22:06:19;;;;;;;;;;;;;;;14.79;64.00;99008.63;4977827;28;19922;-81
2020/12/23 22:08:44;;;;;;;;;;;;;;;14.80;63.36;99009.47;4978402;28;19922;-83
2020/12/23 22:11:11;;;;;;;;;;;;;;;14.81;63.23;99028.03;4978008;28;19918;-81
2020/12/23 22:13:37;;;;;;;;;;;;;;;14.83;62.78;99036.75;4977699;28;19926;-81
2020/12/23 22:16:05;;;;;;;;;;;;;;;14.82;62.33;99028.88;4960821;28;19918;-81
2020/12/23 22:18:31;;;;;;;;;;;;;;;14.71;61.82;99027.84;4960068;28;19922;-82
2020/12/23 22:20:59;;;;;;;;;;;;;;;14.75;61.68;99036.47;4976538;28;19922;-78
2020/12/23 22:23:24;;;;;;;;;;;;;;;14.78;60.88;99051.41;4974837;28;19918;-80
2020/12/23 22:25:49;;;;;;;;;;;;;;;14.82;59.10;99050.19;4976502;28;19934;-82
2020/12/23 22:28:14;;;;;;;;;;;;;;;14.85;59.35;99044.66;4976319;28;19985;-81
2020/12/23 22:30:40;;;;;;;;;;;;;;;14.86;59.47;99049.88;4976550;28;20206;-80
2020/12/23 22:33:05;;;;;;;;;;;;;;;14.92;59.06;99043.25;4957391;28;19925;-80
2020/12/23 22:35:30;;;;;;;;;;;;;;;14.91;59.08;99033.53;4975073;28;19926;-79
2020/12/23 22:37:56;;;;;;;;;;;;;;;14.95;58.79;99039.50;4972947;28;19926;-81
2020/12/23 22:40:21;;;;;;;;;;;;;;;14.96;58.49;99039.38;4976942;28;19957;-81
2020/12/23 22:42:47;;;;;;;;;;;;;;;14.92;58.63;99035.25;4959007;28;20007;-81
2020/12/23 22:45:12;;;;;;;;;;;;;;;14.93;58.62;99044.09;4976285;28;19925;-82
2020/12/23 22:47:37;;;;;;;;;;;;;;;14.97;58.46;99050.94;4959337;28;19922;-81
2020/12/23 22:50:07;;;;;;;;;;;;;;;14.98;58.13;99061.47;4976552;28;19929;-81
2020/12/23 22:52:36;;;;;;;;;;;;;;;15.05;58.10;99065.41;4977837;28;19929;-80
2020/12/23 22:55:02;;;;;;;;;;;;;;;15.17;58.37;99065.47;4977191;28;19968;-80
2020/12/23 22:57:28;;;;;;;;;;;;;;;15.23;58.91;99065.00;4976538;28;19933;-80
2020/12/23 22:59:53;;;;;;;;;;;;;;;15.22;59.34;99053.50;4974915;28;19922;-79
2020/12/23 23:02:18;;;;;;;;;;;;;;;15.24;59.80;99056.06;4975634;28;20016;-81
2020/12/23 23:04:44;;;;;;;;;;;;;;;15.23;60.15;99049.84;4980120;28;19922;-80
2020/12/23 23:07:09;;;;;;;;;;;;;;;15.23;59.95;99065.00;4961682;28;19918;-81
2020/12/23 23:09:34;;;;;;;;;;;;;;;15.23;60.17;99062.34;4961948;28;19998;-80
2020/12/23 23:12:00;;;;;;;;;;;;;;;15.16;60.15;99058.44;4961888;28;19926;-80
2020/12/23 23:14:25;;;;;;;;;;;;;;;15.18;60.22;99061.84;4976597;28;20092;-80
2020/12/23 23:16:50;;;;;;;;;;;;;;;15.19;60.36;99058.19;4960295;28;20347;-80
